createdAt,value
2022-10-19T00:01:18.902Z,101155.40
2022-10-19T00:03:51.000Z,101160.80
2022-10-19T00:06:28.099Z,101161.80
2022-10-19T00:09:09.817Z,101162.80
2022-10-19T00:11:42.379Z,101154.80
2022-10-19T00:14:16.080Z,101159.80
2022-10-19T00:16:46.359Z,101160.80
2022-10-19T00:19:20.616Z,101166.20
2022-10-19T00:24:22.677Z,101169.40
2022-10-19T00:26:50.386Z,101167.20
2022-10-19T00:29:18.165Z,101167.80
2022-10-19T00:31:46.205Z,101166.40
2022-10-19T00:34:13.912Z,101158.20
2022-10-19T00:36:41.945Z,101155.80
2022-10-19T00:39:15.356Z,101143.40
2022-10-19T00:41:46.403Z,101139.40
2022-10-19T00:44:13.984Z,101140.20
2022-10-19T00:46:48.952Z,101150.60
2022-10-19T00:49:28.687Z,101158.60
2022-10-19T00:52:05.161Z,101165.00
2022-10-19T00:54:34.958Z,101157.20
2022-10-19T00:57:05.077Z,101157.80
2022-10-19T00:59:34.710Z,101156.80
2022-10-19T01:02:06.259Z,101153.00
2022-10-19T01:04:39.255Z,101158.80
2022-10-19T01:07:08.302Z,101156.60
2022-10-19T01:09:36.117Z,101161.40
2022-10-19T01:12:59.650Z,101154.20
2022-10-19T01:18:36.817Z,101159.60
2022-10-19T01:21:32.354Z,101157.60
2022-10-19T01:24:48.223Z,101161.00
2022-10-19T01:27:47.276Z,101161.40
2022-10-19T01:30:34.545Z,101166.60
2022-10-19T01:33:35.829Z,101158.60
2022-10-19T01:36:25.198Z,101151.20
2022-10-19T01:39:10.498Z,101153.00
2022-10-19T01:42:21.643Z,101145.80
2022-10-19T01:45:08.755Z,101134.20
2022-10-19T01:48:07.000Z,101141.60
2022-10-19T01:50:54.151Z,101140.60
2022-10-19T01:53:24.648Z,101143.40
2022-10-19T01:55:55.622Z,101137.60
2022-10-19T01:58:31.621Z,101120.80
2022-10-19T02:01:05.367Z,101120.80
2022-10-19T02:03:35.854Z,101121.60
2022-10-19T02:06:10.221Z,101122.80
2022-10-19T02:08:47.024Z,101124.80
2022-10-19T02:11:16.660Z,101122.20
2022-10-19T02:13:48.427Z,101123.20
2022-10-19T02:16:29.716Z,101131.80
2022-10-19T02:19:01.054Z,101130.60
2022-10-19T02:21:29.057Z,101133.00
2022-10-19T02:23:56.882Z,101134.60
2022-10-19T02:26:24.625Z,101139.40
2022-10-19T02:28:56.509Z,101140.20
2022-10-19T02:31:26.438Z,101141.00
2022-10-19T02:33:54.978Z,101142.40
2022-10-19T02:36:22.885Z,101146.40
2022-10-19T02:38:50.734Z,101143.00
2022-10-19T02:41:27.226Z,101149.40
2022-10-19T02:44:04.385Z,101156.80
2022-10-19T02:46:41.959Z,101159.80
2022-10-19T02:49:12.065Z,101158.20
2022-10-19T02:52:00.645Z,101159.80
2022-10-19T02:54:29.017Z,101153.00
2022-10-19T02:56:57.682Z,101158.00
2022-10-19T02:59:26.251Z,101160.40
2022-10-19T03:01:54.044Z,101164.80
2022-10-19T03:04:21.787Z,101163.60
2022-10-19T03:06:49.535Z,101162.40
2022-10-19T03:09:17.438Z,101166.80
2022-10-19T03:11:45.150Z,101167.00
2022-10-19T03:14:12.856Z,101165.40
2022-10-19T03:16:40.554Z,101166.80
2022-10-19T03:19:08.250Z,101171.00
2022-10-19T03:21:36.056Z,101174.80
2022-10-19T03:24:03.938Z,101173.00
2022-10-19T03:26:31.722Z,101170.20
2022-10-19T03:28:59.518Z,101177.60
2022-10-19T03:31:27.410Z,101178.00
2022-10-19T03:33:55.490Z,101183.40
2022-10-19T03:36:27.618Z,101184.40
2022-10-19T03:38:59.507Z,101186.60
2022-10-19T03:41:30.503Z,101188.20
2022-10-19T03:46:31.535Z,101194.00
2022-10-19T03:48:59.613Z,101194.00
2022-10-19T03:51:30.842Z,101190.40
2022-10-19T03:54:05.251Z,101192.60
2022-10-19T03:56:35.518Z,101189.40
2022-10-19T03:59:05.736Z,101190.20
2022-10-19T04:01:40.479Z,101189.20
2022-10-19T04:04:17.399Z,101194.60
2022-10-19T04:06:49.523Z,101195.60
2022-10-19T04:09:20.769Z,101196.20
2022-10-19T04:11:50.086Z,101201.20
2022-10-19T04:14:32.695Z,101205.20
2022-10-19T04:17:07.006Z,101207.00
2022-10-19T04:19:34.774Z,101206.80
2022-10-19T04:22:03.527Z,101207.20
2022-10-19T04:24:31.249Z,101211.60
2022-10-19T04:26:58.948Z,101214.40
2022-10-19T04:29:29.757Z,101218.80
2022-10-19T04:31:59.832Z,101221.80
2022-10-19T04:34:27.807Z,101227.00
2022-10-19T04:36:55.696Z,101236.60
2022-10-19T04:39:23.458Z,101236.20
2022-10-19T04:41:51.101Z,101235.80
2022-10-19T04:44:18.978Z,101236.40
2022-10-19T04:46:46.738Z,101244.40
2022-10-19T04:49:17.792Z,101234.80
2022-10-19T04:51:48.034Z,101245.60
2022-10-19T04:54:15.747Z,101249.60
2022-10-19T04:56:43.598Z,101250.60
2022-10-19T04:59:11.323Z,101252.00
2022-10-19T05:01:42.201Z,101245.20
2022-10-19T05:04:12.402Z,101251.80
2022-10-19T05:06:40.117Z,101253.80
2022-10-19T05:09:07.811Z,101259.80
2022-10-19T05:11:35.603Z,101260.40
2022-10-19T05:14:03.291Z,101260.40
2022-10-19T05:16:30.978Z,101262.00
2022-10-19T05:18:59.811Z,101262.20
2022-10-19T05:21:29.519Z,101263.40
2022-10-19T05:23:58.171Z,101266.80
2022-10-19T05:26:28.140Z,101270.00
2022-10-19T05:29:04.885Z,101273.60
2022-10-19T05:31:34.247Z,101272.20
2022-10-19T05:34:04.337Z,101279.60
2022-10-19T05:36:37.037Z,101286.80
2022-10-19T05:39:14.129Z,101285.40
2022-10-19T05:41:46.976Z,101284.60
2022-10-19T05:44:21.660Z,101289.40
2022-10-19T05:46:51.710Z,101295.60
2022-10-19T05:49:22.532Z,101294.60
2022-10-19T05:51:50.803Z,101295.20
2022-10-19T05:54:19.140Z,101302.00
2022-10-19T05:56:47.578Z,101304.00
2022-10-19T05:59:19.317Z,101304.80
2022-10-19T06:01:48.249Z,101304.20
2022-10-19T06:06:46.127Z,101310.40
2022-10-19T06:09:13.957Z,101315.80
2022-10-19T06:11:43.234Z,101318.40
2022-10-19T06:14:15.460Z,101310.40
2022-10-19T06:16:46.138Z,101320.20
2022-10-19T06:19:14.400Z,101330.40
2022-10-19T06:21:46.647Z,101334.00
2022-10-19T06:24:15.019Z,101328.40
2022-10-19T06:26:43.019Z,101337.60
2022-10-19T06:29:11.332Z,101341.80
2022-10-19T06:31:39.048Z,101343.40
2022-10-19T06:34:07.435Z,101340.20
2022-10-19T06:36:35.691Z,101342.00
2022-10-19T06:39:04.214Z,101345.40
2022-10-19T06:41:33.018Z,101353.20
2022-10-19T06:44:00.777Z,101349.20
2022-10-19T06:46:28.581Z,101359.60
2022-10-19T06:48:59.862Z,101359.40
2022-10-19T06:51:30.644Z,101369.40
2022-10-19T06:53:58.493Z,101377.00
2022-10-19T06:56:26.898Z,101382.00
2022-10-19T06:58:55.864Z,101393.60
2022-10-19T07:01:24.271Z,101398.20
2022-10-19T07:03:53.811Z,101394.20
2022-10-19T07:06:23.136Z,101407.20
2022-10-19T07:08:52.323Z,101402.80
2022-10-19T07:11:22.811Z,101402.40
2022-10-19T07:13:52.871Z,101404.80
2022-10-19T07:16:21.942Z,101404.20
2022-10-19T07:18:53.054Z,101409.00
2022-10-19T07:21:23.432Z,101412.20
2022-10-19T07:23:52.106Z,101416.00
2022-10-19T07:26:27.327Z,101417.20
2022-10-19T07:28:57.576Z,101428.60
2022-10-19T07:31:27.987Z,101435.40
2022-10-19T07:33:59.597Z,101436.20
2022-10-19T07:36:30.654Z,101442.20
2022-10-19T07:38:58.562Z,101443.20
2022-10-19T07:41:26.928Z,101447.40
2022-10-19T07:43:55.116Z,101444.20
2022-10-19T07:46:29.236Z,101446.40
2022-10-19T07:48:57.297Z,101444.00
2022-10-19T07:51:26.581Z,101450.40
2022-10-19T07:53:54.314Z,101458.00
2022-10-19T07:56:25.139Z,101455.80
2022-10-19T07:58:56.450Z,101455.60
2022-10-19T08:01:34.868Z,101455.40
2022-10-19T08:06:50.690Z,101455.80
2022-10-19T08:09:47.203Z,101454.00
2022-10-19T08:12:07.171Z,101454.40
2022-10-19T08:14:34.993Z,101454.80
2022-10-19T08:17:02.957Z,101456.80
2022-10-19T08:19:31.009Z,101460.40
2022-10-19T08:21:58.829Z,101465.60
2022-10-19T08:24:26.596Z,101472.00
2022-10-19T08:26:54.383Z,101474.40
2022-10-19T08:29:22.677Z,101476.60
2022-10-19T08:31:51.614Z,101481.00
2022-10-19T08:34:19.426Z,101491.20
2022-10-19T08:36:47.194Z,101480.20
2022-10-19T08:39:15.029Z,101493.20
2022-10-19T08:42:17.689Z,101492.60
2022-10-19T08:48:37.227Z,101493.00
2022-10-19T08:51:09.401Z,101489.20
2022-10-19T08:53:43.215Z,101492.80
2022-10-19T08:56:51.365Z,101506.20
2022-10-19T08:59:45.007Z,101498.80
2022-10-19T09:02:47.024Z,101508.60
2022-10-19T09:05:40.888Z,101494.80
2022-10-19T09:08:17.471Z,101503.20
2022-10-19T09:10:51.131Z,101507.40
2022-10-19T09:13:41.708Z,101509.80
2022-10-19T09:16:21.548Z,101513.40
2022-10-19T09:18:49.714Z,101512.20
2022-10-19T09:21:31.071Z,101528.40
2022-10-19T09:24:25.963Z,101530.60
2022-10-19T09:26:59.003Z,101532.40
2022-10-19T09:29:48.010Z,101531.80
2022-10-19T09:32:47.629Z,101542.20
2022-10-19T09:35:37.547Z,101543.00
2022-10-19T09:38:07.631Z,101537.00
2022-10-19T09:40:35.941Z,101542.80
2022-10-19T09:43:20.319Z,101550.80
2022-10-19T09:46:19.675Z,101553.20
2022-10-19T09:48:51.788Z,101554.20
2022-10-19T09:51:21.143Z,101568.20
2022-10-19T09:53:53.597Z,101560.00
2022-10-19T09:56:27.463Z,101564.00
2022-10-19T09:58:58.896Z,101565.80
2022-10-19T10:01:43.217Z,101565.80
2022-10-19T10:04:18.050Z,101564.60
2022-10-19T10:06:48.710Z,101558.40
2022-10-19T10:09:27.946Z,101561.40
2022-10-19T10:12:00.353Z,101564.60
2022-10-19T10:14:35.363Z,101573.60
2022-10-19T10:17:08.026Z,101572.60
2022-10-19T10:19:36.261Z,101578.60
2022-10-19T10:22:04.751Z,101584.40
2022-10-19T10:24:34.451Z,101588.40
2022-10-19T10:27:06.476Z,101600.40
2022-10-19T10:29:39.373Z,101604.60
2022-10-19T10:32:13.035Z,101606.40
2022-10-19T10:34:53.052Z,101596.20
2022-10-19T10:37:37.369Z,101597.80
2022-10-19T10:40:23.284Z,101601.60
2022-10-19T10:42:55.039Z,101606.40
2022-10-19T10:45:46.590Z,101596.20
2022-10-19T10:48:40.426Z,101596.40
2022-10-19T10:51:33.206Z,101605.60
2022-10-19T10:54:31.447Z,101613.20
2022-10-19T10:57:16.964Z,101607.20
2022-10-19T10:59:55.526Z,101611.40
2022-10-19T11:02:52.337Z,101624.60
2022-10-19T11:05:29.343Z,101621.20
2022-10-19T11:08:14.755Z,101625.40
2022-10-19T11:11:06.626Z,101626.00
2022-10-19T11:13:59.267Z,101620.60
2022-10-19T11:16:57.883Z,101610.60
2022-10-19T11:19:35.034Z,101610.60
2022-10-19T11:22:37.742Z,101613.00
2022-10-19T11:25:16.435Z,101613.00
2022-10-19T11:28:16.628Z,101619.40
2022-10-19T11:31:01.475Z,101619.20
2022-10-19T11:33:40.378Z,101623.20
2022-10-19T11:36:54.558Z,101627.40
2022-10-19T11:40:02.176Z,101640.00
2022-10-19T11:42:44.135Z,101636.80
2022-10-19T11:45:48.474Z,101630.20
2022-10-19T11:48:54.953Z,101630.80
2022-10-19T11:51:51.865Z,101636.20
2022-10-19T11:54:37.680Z,101635.00
2022-10-19T11:57:52.461Z,101640.60
2022-10-19T12:00:38.177Z,101633.00
2022-10-19T12:03:15.787Z,101627.00
2022-10-19T12:06:23.897Z,101640.20
2022-10-19T12:09:16.549Z,101644.80
2022-10-19T12:12:40.381Z,101652.80
2022-10-19T12:15:11.043Z,101657.80
2022-10-19T12:17:45.074Z,101663.80
2022-10-19T12:20:44.968Z,101666.60
2022-10-19T12:23:33.561Z,101669.40
2022-10-19T12:26:07.500Z,101671.40
2022-10-19T12:28:41.982Z,101668.20
2022-10-19T12:31:12.026Z,101676.80
2022-10-19T12:33:54.437Z,101680.80
2022-10-19T12:37:12.212Z,101671.60
2022-10-19T12:39:58.074Z,101671.00
2022-10-19T12:42:52.308Z,101672.20
2022-10-19T12:45:36.533Z,101665.20
2022-10-19T12:48:15.874Z,101672.80
2022-10-19T12:50:49.777Z,101664.00
2022-10-19T12:53:38.471Z,101671.80
2022-10-19T12:56:16.530Z,101670.20
2022-10-19T12:58:46.706Z,101671.80
2022-10-19T13:01:35.954Z,101671.40
2022-10-19T13:04:33.529Z,101670.00
2022-10-19T13:07:11.005Z,101675.40
2022-10-19T13:09:42.683Z,101673.00
2022-10-19T13:12:16.461Z,101675.00
2022-10-19T13:15:00.695Z,101681.00
2022-10-19T13:17:34.875Z,101688.20
2022-10-19T13:20:14.897Z,101690.00
2022-10-19T13:22:49.836Z,101699.20
2022-10-19T13:25:27.273Z,101710.80
2022-10-19T13:28:00.115Z,101708.60
2022-10-19T13:30:37.082Z,101708.00
2022-10-19T13:33:24.875Z,101708.00
2022-10-19T13:35:58.734Z,101710.40
2022-10-19T13:38:49.376Z,101701.20
2022-10-19T13:41:36.788Z,101711.00
2022-10-19T13:44:14.069Z,101711.60
2022-10-19T13:47:21.826Z,101711.40
2022-10-19T13:50:01.848Z,101724.40
2022-10-19T13:53:07.009Z,101719.20
2022-10-19T13:56:08.818Z,101723.80
2022-10-19T13:59:07.435Z,101729.80
2022-10-19T14:02:18.012Z,101736.60
2022-10-19T14:05:11.685Z,101749.40
2022-10-19T14:08:01.596Z,101747.80
2022-10-19T14:10:32.904Z,101769.80
2022-10-19T14:13:05.285Z,101766.80
2022-10-19T14:15:35.684Z,101765.40
2022-10-19T14:18:05.827Z,101765.60
2022-10-19T14:20:38.867Z,101765.60
2022-10-19T14:23:28.891Z,101772.40
2022-10-19T14:26:34.230Z,101769.40
2022-10-19T14:29:04.164Z,101768.60
2022-10-19T14:31:37.393Z,101768.80
2022-10-19T14:34:09.522Z,101769.80
2022-10-19T14:36:45.215Z,101776.60
2022-10-19T14:39:31.577Z,101787.00
2022-10-19T14:42:06.158Z,101784.60
2022-10-19T14:44:40.992Z,101784.40
2022-10-19T14:47:30.470Z,101785.60
2022-10-19T14:49:58.221Z,101783.40
2022-10-19T14:52:39.660Z,101788.60
2022-10-19T14:55:18.204Z,101788.60
2022-10-19T14:57:51.319Z,101781.60
2022-10-19T15:00:24.124Z,101781.20
2022-10-19T15:03:01.824Z,101782.00
2022-10-19T15:05:35.071Z,101777.00
2022-10-19T15:08:17.643Z,101775.80
2022-10-19T15:10:48.275Z,101778.60
2022-10-19T15:13:31.810Z,101776.60
2022-10-19T15:15:59.664Z,101776.60
2022-10-19T15:18:49.788Z,101784.00
2022-10-19T15:21:21.763Z,101781.40
2022-10-19T15:23:52.734Z,101781.20
2022-10-19T15:26:26.198Z,101783.20
2022-10-19T15:29:07.858Z,101779.40
2022-10-19T15:31:35.961Z,101785.60
2022-10-19T15:34:05.573Z,101785.40
2022-10-19T15:36:33.692Z,101788.40
2022-10-19T15:39:18.446Z,101789.00
2022-10-19T15:41:53.188Z,101794.20
2022-10-19T15:44:42.630Z,101797.80
2022-10-19T15:47:16.517Z,101804.60
2022-10-19T15:49:44.592Z,101807.60
2022-10-19T15:52:26.166Z,101808.20
2022-10-19T15:54:57.837Z,101805.40
2022-10-19T15:57:32.168Z,101809.60
2022-10-19T16:00:08.053Z,101806.40
2022-10-19T16:02:35.830Z,101807.40
2022-10-19T16:05:03.791Z,101814.20
2022-10-19T16:07:38.801Z,101798.20
2022-10-19T16:10:14.537Z,101815.80
2022-10-19T16:12:42.556Z,101818.80
2022-10-19T16:15:22.529Z,101819.80
2022-10-19T16:17:59.172Z,101820.20
2022-10-19T16:20:29.759Z,101827.20
2022-10-19T16:22:58.373Z,101832.00
2022-10-19T16:25:27.963Z,101835.40
2022-10-19T16:27:55.718Z,101838.20
2022-10-19T16:30:23.458Z,101839.60
2022-10-19T16:32:51.419Z,101839.80
2022-10-19T16:35:19.167Z,101843.60
2022-10-19T16:37:46.901Z,101846.20
2022-10-19T16:40:14.674Z,101851.20
2022-10-19T16:42:42.630Z,101850.60
2022-10-19T16:45:11.160Z,101854.20
2022-10-19T16:47:38.898Z,101859.40
2022-10-19T16:50:07.434Z,101861.00
2022-10-19T16:52:35.501Z,101863.80
2022-10-19T16:55:03.928Z,101862.80
2022-10-19T16:57:31.610Z,101853.20
2022-10-19T16:59:59.335Z,101862.80
2022-10-19T17:02:27.221Z,101854.80
2022-10-19T17:04:54.888Z,101854.80
2022-10-19T17:07:23.128Z,101852.40
2022-10-19T17:09:54.460Z,101856.20
2022-10-19T17:12:22.913Z,101864.20
2022-10-19T17:14:51.462Z,101862.80
2022-10-19T17:17:19.280Z,101869.00
2022-10-19T17:19:48.419Z,101874.60
2022-10-19T17:22:16.243Z,101886.40
2022-10-19T17:24:46.443Z,101882.80
2022-10-19T17:27:14.719Z,101891.80
2022-10-19T17:29:42.688Z,101883.60
2022-10-19T17:32:10.418Z,101886.40
2022-10-19T17:34:38.233Z,101887.00
2022-10-19T17:37:06.315Z,101885.80
2022-10-19T17:39:34.106Z,101886.20
2022-10-19T17:42:03.445Z,101888.60
2022-10-19T17:44:31.764Z,101890.00
2022-10-19T17:47:01.164Z,101895.60
2022-10-19T17:49:30.216Z,101895.60
2022-10-19T17:51:58.609Z,101903.80
2022-10-19T17:54:26.797Z,101906.20
2022-10-19T17:56:54.651Z,101909.80
2022-10-19T17:59:30.471Z,101906.00
2022-10-19T18:02:06.434Z,101906.40
2022-10-19T18:07:04.051Z,101912.20
2022-10-19T18:09:31.760Z,101910.60
2022-10-19T18:12:03.487Z,101911.60
2022-10-19T18:14:35.323Z,101908.80
2022-10-19T18:17:03.063Z,101913.00
2022-10-19T18:19:30.780Z,101911.00
2022-10-19T18:22:00.831Z,101916.60
2022-10-19T18:24:28.829Z,101917.20
2022-10-19T18:26:57.527Z,101910.40
2022-10-19T18:29:26.600Z,101908.00
2022-10-19T18:31:55.129Z,101916.20
2022-10-19T18:34:27.097Z,101912.40
2022-10-19T18:36:55.356Z,101911.80
2022-10-19T18:39:23.584Z,101912.40
2022-10-19T18:41:55.403Z,101915.80
2022-10-19T18:44:27.272Z,101912.60
2022-10-19T18:46:59.013Z,101909.20
2022-10-19T18:49:26.849Z,101908.40
2022-10-19T18:51:55.879Z,101910.00
2022-10-19T18:54:26.594Z,101912.40
2022-10-19T18:56:55.815Z,101914.60
2022-10-19T19:01:53.486Z,101918.00
2022-10-19T19:04:21.405Z,101915.80
2022-10-19T19:06:49.142Z,101918.00
2022-10-19T19:09:19.012Z,101922.20
2022-10-19T19:11:48.289Z,101929.60
2022-10-19T19:14:21.168Z,101928.00
2022-10-19T19:16:49.068Z,101928.00
2022-10-19T19:19:19.453Z,101928.80
2022-10-19T19:21:49.191Z,101933.00
2022-10-19T19:24:22.170Z,101928.80
2022-10-19T19:26:53.931Z,101930.80
2022-10-19T19:29:24.970Z,101935.80
2022-10-19T19:31:53.657Z,101938.80
2022-10-19T19:34:22.539Z,101943.60
2022-10-19T19:36:50.316Z,101933.80
2022-10-19T19:39:21.387Z,101937.00
2022-10-19T19:41:50.994Z,101937.80
2022-10-19T19:44:19.346Z,101937.80
2022-10-19T19:46:47.967Z,101936.00
2022-10-19T19:49:15.969Z,101935.00
2022-10-19T19:51:45.240Z,101938.80
2022-10-19T19:54:12.997Z,101936.20
2022-10-19T19:56:42.602Z,101945.40
2022-10-19T19:59:13.048Z,101947.20
2022-10-19T20:01:41.856Z,101948.80
2022-10-19T20:04:11.120Z,101952.00
2022-10-19T20:06:41.063Z,101946.00
2022-10-19T20:09:12.749Z,101950.80
2022-10-19T20:11:42.563Z,101940.40
2022-10-19T20:14:12.198Z,101944.00
2022-10-19T20:16:40.983Z,101938.00
2022-10-19T20:19:14.528Z,101937.00
2022-10-19T20:21:42.254Z,101941.00
2022-10-19T20:24:10.423Z,101947.40
2022-10-19T20:26:38.622Z,101949.40
2022-10-19T20:29:07.040Z,101950.20
2022-10-19T20:31:39.635Z,101953.60
2022-10-19T20:34:14.194Z,101959.60
2022-10-19T20:36:42.693Z,101951.80
2022-10-19T20:39:10.622Z,101954.20
2022-10-19T20:41:38.822Z,101955.60
2022-10-19T20:44:06.924Z,101958.40
2022-10-19T20:46:37.154Z,101964.20
2022-10-19T20:49:05.079Z,101962.20
2022-10-19T20:51:39.133Z,101965.40
2022-10-19T20:54:12.464Z,101964.40
2022-10-19T20:56:42.322Z,101965.00
2022-10-19T20:59:18.518Z,101967.20
2022-10-19T21:01:50.948Z,101968.20
2022-10-19T21:04:19.452Z,101970.80
2022-10-19T21:06:50.039Z,101969.80
2022-10-19T21:09:23.339Z,101970.00
2022-10-19T21:11:52.730Z,101970.80
2022-10-19T21:14:27.230Z,101966.80
2022-10-19T21:17:08.494Z,101970.60
2022-10-19T21:19:36.370Z,101971.00
2022-10-19T21:22:04.231Z,101972.40
2022-10-19T21:24:36.797Z,101977.40
2022-10-19T21:27:09.289Z,101969.40
2022-10-19T21:29:37.360Z,101971.80
2022-10-19T21:32:05.406Z,101969.20
2022-10-19T21:34:33.256Z,101968.80
2022-10-19T21:37:01.129Z,101970.40
2022-10-19T21:39:29.151Z,101968.60
2022-10-19T21:41:57.226Z,101964.80
2022-10-19T21:44:25.111Z,101964.40
2022-10-19T21:46:52.835Z,101963.80
2022-10-19T21:49:20.595Z,101970.80
2022-10-19T21:51:53.728Z,101961.40
2022-10-19T21:54:25.195Z,101964.80
2022-10-19T21:56:55.873Z,101960.40
2022-10-19T21:59:24.927Z,101959.80
2022-10-19T22:01:54.748Z,101956.80
2022-10-19T22:04:23.027Z,101961.40
2022-10-19T22:06:51.009Z,101957.60
2022-10-19T22:09:21.929Z,101959.00
2022-10-19T22:11:49.733Z,101962.60
2022-10-19T22:14:18.182Z,101966.80
2022-10-19T22:16:45.990Z,101958.20
2022-10-19T22:19:14.411Z,101960.80
2022-10-19T22:21:42.166Z,101964.20
2022-10-19T22:24:15.594Z,101965.80
2022-10-19T22:26:47.457Z,101964.20
2022-10-19T22:29:15.320Z,101958.00
2022-10-19T22:31:43.462Z,101962.20
2022-10-19T22:34:16.138Z,101965.60
2022-10-19T22:36:45.484Z,101964.20
2022-10-19T22:39:13.656Z,101961.80
2022-10-19T22:41:41.391Z,101960.00
2022-10-19T22:44:09.073Z,101959.60
2022-10-19T22:46:36.811Z,101962.60
2022-10-19T22:49:04.662Z,101960.80
2022-10-19T22:51:32.786Z,101960.80
2022-10-19T22:54:00.665Z,101966.20
2022-10-19T22:56:28.454Z,101970.20
2022-10-19T22:59:01.571Z,101975.00
2022-10-19T23:01:29.528Z,101973.60
2022-10-19T23:03:57.425Z,101974.80
2022-10-19T23:06:26.146Z,101973.20
2022-10-19T23:08:54.605Z,101975.60
2022-10-19T23:11:23.390Z,101968.20
2022-10-19T23:13:51.346Z,101965.80
2022-10-19T23:16:19.509Z,101965.00
2022-10-19T23:18:47.346Z,101970.80
2022-10-19T23:21:15.699Z,101963.80
2022-10-19T23:23:43.420Z,101967.40
2022-10-19T23:26:16.001Z,101965.80
2022-10-19T23:28:47.249Z,101968.40
2022-10-19T23:31:25.554Z,101972.80
2022-10-19T23:33:54.228Z,101965.60
2022-10-19T23:36:27.033Z,101972.80
2022-10-19T23:38:56.724Z,101976.20
2022-10-19T23:41:24.486Z,101969.40
2022-10-19T23:43:52.249Z,101975.20
2022-10-19T23:46:20.453Z,101978.40
2022-10-19T23:48:48.207Z,101986.60
2022-10-19T23:51:20.412Z,101983.00
2022-10-19T23:53:51.371Z,101977.80
2022-10-19T23:56:25.790Z,101978.00
2022-10-19T23:58:55.106Z,101980.60
